Airfield :
LOGIN :

Register | Disclaimer

   EN    FR    IT 

 










Legend :    VFR   Marginal VFR   IFR   Intensive IFR   Very Intensive IFR
Visi :
Ceiling :
>= 8 km
>= 3000ft
5 to 8 km
1000 to 3000 ft
1500m to 5 km
500 to 1000 ft
800 to 1500m
200 to 500 ft
< 800m
< 200 ft
Symbols :   Thunderstorms  Fog  Heavy snow  Heavy precipitations  Wind > 20 kt
SIGMETs :     Misc.  Thunderstorms  Icing  Turbulence  Mountain Waves  Volcanic Ashes






- Airport Elevation : 42 ft
- IATA code : KGD


UMKK - Khrabrava - Kaliningrad

CURRENT METAR :
  • 222300Z 27005MPS 9000 -SHRA BKN005 BKN050CB 20/19 Q1013 R24/290095 NOSIG RMK QBB150 OBST OBSC QFE759/1012

EXPIRED METARs :
  • 222230Z 30004MPS 9000 -SHRA FEW006 BKN040CB 20/19 Q1013 RETS R24/290095 NOSIG RMK QBB180 OBST OBSC QFE758/1011
  • 222200Z 30005MPS 6000 -TSRA FEW008 BKN050CB 20/19 Q1013 R24/290095 NOSIG RMK QFE758/1011
  • 222130Z 22004MPS 4800 -TSRA FEW009 BKN050CB 20/20 Q1014 R24/290095 NOSIG RMK QFE759/1012
  • 222100Z 22005MPS 5000 -TSRA FEW009 BKN050CB 20/20 Q1014 R24/290095 NOSIG RMK QFE759/1012
  • 222030Z 21004MPS 5000 -TSRA BKN007 BKN043CB 21/20 Q1014 R24/19//95 NOSIG RMK QBB210 QFE759/1012

TAF TAF UMKK
Valid from the 22 at 21:00 until the 23 at 21:00 UTC


221956Z 2221/2321 29003G08MPS 6000 BKN006 BKN016CB
TEMPO 2221/2303 34008G14MPS 2100 -TSRA BR BKN004 BKN013CB
BECMG 2303/2304 SCT016
TEMPO 2304/2309 BKN010
BECMG 2309/2311 31005G10MPS
BECMG 2319/2321 27003G08MPS



MET'MAP, your aeronautical weather chart ! - Copyright ORBIFLY December 2007 - Disclaimer

ORBIFLY MET'MAP TEAM :

Programming & Development : Alexandra Zaïnal
Concept & original design : Baudouin d'Aumeries
Assistance for programming : Marc-Olivier Méhu
Technical & hardware support : Manuel Goepfert

Contact : metmap@orbifly.com




SOURCES & CREDITS :

   NOAA